Terminal Aerodrome Forecast
Issued by NWS Sioux Falls, SD

Home | Current Version | Previous Version | Text Only | Print | Product List | Glossary On
Versions: 1 2 3 4 5 6 7 8 9 10 11 12 13 14 15 16
313
FTUS43 KFSD 081135
TAFFSD
TAF
KFSD 081135Z 0812/0912 33025G36KT P6SM OVC025
      TEMPO 0812/0815 2SM -SN BLSN OVC018
     FM081900 33025G33KT P6SM BKN035
     FM082200 33021G28KT P6SM SCT200
     FM090100 33014G22KT P6SM SCT150=

USA.gov is the U.S. government's official web portal to all federal, state and local government web resources and services.